sensor_id;sensor_type;location;lat;lon;timestamp;temperature;humidity
31967;DHT22;18496;52.042;6.812;2022-07-11T00:00:21;20.90;99.90
31967;DHT22;18496;52.042;6.812;2022-07-11T00:02:24;20.80;99.90
31967;DHT22;18496;52.042;6.812;2022-07-11T00:04:29;20.80;99.90
31967;DHT22;18496;52.042;6.812;2022-07-11T00:06:33;20.80;99.90
31967;DHT22;18496;52.042;6.812;2022-07-11T00:08:37;20.80;99.90
31967;DHT22;18496;52.042;6.812;2022-07-11T00:10:40;20.70;99.90
31967;DHT22;18496;52.042;6.812;2022-07-11T00:12:44;20.70;99.90
31967;DHT22;18496;52.042;6.812;2022-07-11T00:14:48;20.60;99.90
31967;DHT22;18496;52.042;6.812;2022-07-11T00:16:52;20.60;99.90
31967;DHT22;18496;52.042;6.812;2022-07-11T00:18:56;20.50;99.90
31967;DHT22;18496;52.042;6.812;2022-07-11T00:21:00;20.50;99.90
31967;DHT22;18496;52.042;6.812;2022-07-11T00:23:03;20.50;99.90
31967;DHT22;18496;52.042;6.812;2022-07-11T00:25:07;20.50;99.90
31967;DHT22;18496;52.042;6.812;2022-07-11T00:27:11;20.60;99.90
31967;DHT22;18496;52.042;6.812;2022-07-11T00:29:16;20.60;99.90
31967;DHT22;18496;52.042;6.812;2022-07-11T00:31:20;20.60;99.90
31967;DHT22;18496;52.042;6.812;2022-07-11T00:33:24;20.70;99.90
31967;DHT22;18496;52.042;6.812;2022-07-11T00:35:28;20.60;99.90
31967;DHT22;18496;52.042;6.812;2022-07-11T00:37:31;20.60;99.90
31967;DHT22;18496;52.042;6.812;2022-07-11T00:39:35;20.60;99.90
31967;DHT22;18496;52.042;6.812;2022-07-11T00:41:39;20.60;99.90
31967;DHT22;18496;52.042;6.812;2022-07-11T00:43:43;20.60;99.90
31967;DHT22;18496;52.042;6.812;2022-07-11T00:45:50;20.50;99.90
31967;DHT22;18496;52.042;6.812;2022-07-11T00:47:54;20.50;99.90
31967;DHT22;18496;52.042;6.812;2022-07-11T00:49:59;20.50;99.90
31967;DHT22;18496;52.042;6.812;2022-07-11T00:52:03;20.50;99.90
31967;DHT22;18496;52.042;6.812;2022-07-11T00:54:07;20.40;99.90
31967;DHT22;18496;52.042;6.812;2022-07-11T00:56:11;20.50;99.90
31967;DHT22;18496;52.042;6.812;2022-07-11T00:58:15;20.50;99.90
31967;DHT22;18496;52.042;6.812;2022-07-11T01:00:19;20.50;99.90
31967;DHT22;18496;52.042;6.812;2022-07-11T01:02:22;20.50;99.90
31967;DHT22;18496;52.042;6.812;2022-07-11T01:04:26;20.50;99.90
31967;DHT22;18496;52.042;6.812;2022-07-11T01:06:30;20.50;99.90
31967;DHT22;18496;52.042;6.812;2022-07-11T01:08:34;20.50;99.90
31967;DHT22;18496;52.042;6.812;2022-07-11T01:10:39;20.40;99.90
31967;DHT22;18496;52.042;6.812;2022-07-11T01:12:42;20.40;99.90
31967;DHT22;18496;52.042;6.812;2022-07-11T01:14:56;20.40;99.90
31967;DHT22;18496;52.042;6.812;2022-07-11T01:17:01;20.50;99.90
31967;DHT22;18496;52.042;6.812;2022-07-11T01:19:04;20.50;99.90
31967;DHT22;18496;52.042;6.812;2022-07-11T01:21:32;20.40;99.90
31967;DHT22;18496;52.042;6.812;2022-07-11T01:23:38;20.40;99.90
31967;DHT22;18496;52.042;6.812;2022-07-11T01:25:42;20.40;99.90
31967;DHT22;18496;52.042;6.812;2022-07-11T01:27:46;20.40;99.90
31967;DHT22;18496;52.042;6.812;2022-07-11T01:29:49;20.40;99.90
31967;DHT22;18496;52.042;6.812;2022-07-11T01:31:53;20.40;99.90
31967;DHT22;18496;52.042;6.812;2022-07-11T01:33:57;20.40;99.90
31967;DHT22;18496;52.042;6.812;2022-07-11T01:36:01;20.40;99.90
31967;DHT22;18496;52.042;6.812;2022-07-11T01:38:05;20.40;99.90
31967;DHT22;18496;52.042;6.812;2022-07-11T01:40:09;20.30;99.90
31967;DHT22;18496;52.042;6.812;2022-07-11T01:42:13;20.30;99.90
31967;DHT22;18496;52.042;6.812;2022-07-11T01:44:17;20.30;99.90
31967;DHT22;18496;52.042;6.812;2022-07-11T01:46:20;20.30;99.90
31967;DHT22;18496;52.042;6.812;2022-07-11T01:48:25;20.40;99.90
31967;DHT22;18496;52.042;6.812;2022-07-11T01:50:28;20.40;99.90
31967;DHT22;18496;52.042;6.812;2022-07-11T01:52:32;20.30;99.90
31967;DHT22;18496;52.042;6.812;2022-07-11T01:54:36;20.40;99.90
31967;DHT22;18496;52.042;6.812;2022-07-11T01:56:40;20.30;99.90
31967;DHT22;18496;52.042;6.812;2022-07-11T01:58:43;20.30;99.90
31967;DHT22;18496;52.042;6.812;2022-07-11T02:00:47;20.30;99.90
31967;DHT22;18496;52.042;6.812;2022-07-11T02:02:51;20.30;99.90
31967;DHT22;18496;52.042;6.812;2022-07-11T02:04:54;20.30;99.90
31967;DHT22;18496;52.042;6.812;2022-07-11T02:06:58;20.30;99.90
31967;DHT22;18496;52.042;6.812;2022-07-11T02:09:02;20.20;99.90
31967;DHT22;18496;52.042;6.812;2022-07-11T02:11:05;20.20;99.90
31967;DHT22;18496;52.042;6.812;2022-07-11T02:13:10;20.20;99.90
31967;DHT22;18496;52.042;6.812;2022-07-11T02:15:14;20.30;99.90
31967;DHT22;18496;52.042;6.812;2022-07-11T02:17:18;20.30;99.90
31967;DHT22;18496;52.042;6.812;2022-07-11T02:19:22;20.30;99.90
31967;DHT22;18496;52.042;6.812;2022-07-11T02:21:25;20.30;99.90
31967;DHT22;18496;52.042;6.812;2022-07-11T02:23:29;20.30;99.90
31967;DHT22;18496;52.042;6.812;2022-07-11T02:25:33;20.30;99.90
31967;DHT22;18496;52.042;6.812;2022-07-11T02:27:42;20.30;99.90
31967;DHT22;18496;52.042;6.812;2022-07-11T02:29:46;20.40;99.90
31967;DHT22;18496;52.042;6.812;2022-07-11T02:31:49;20.30;99.90
31967;DHT22;18496;52.042;6.812;2022-07-11T02:33:53;20.30;99.90
31967;DHT22;18496;52.042;6.812;2022-07-11T02:36:00;20.30;99.90
31967;DHT22;18496;52.042;6.812;2022-07-11T02:38:04;20.30;99.90
31967;DHT22;18496;52.042;6.812;2022-07-11T02:40:08;20.30;99.90
31967;DHT22;18496;52.042;6.812;2022-07-11T02:42:12;20.30;99.90
31967;DHT22;18496;52.042;6.812;2022-07-11T02:44:15;20.30;99.90
31967;DHT22;18496;52.042;6.812;2022-07-11T02:46:19;20.40;99.90
31967;DHT22;18496;52.042;6.812;2022-07-11T02:48:22;20.40;99.90
31967;DHT22;18496;52.042;6.812;2022-07-11T02:50:26;20.30;99.90
31967;DHT22;18496;52.042;6.812;2022-07-11T02:52:30;20.30;99.90
31967;DHT22;18496;52.042;6.812;2022-07-11T02:54:33;20.30;99.90
31967;DHT22;18496;52.042;6.812;2022-07-11T02:56:37;20.30;99.90
31967;DHT22;18496;52.042;6.812;2022-07-11T02:58:41;20.20;99.90
31967;DHT22;18496;52.042;6.812;2022-07-11T03:00:44;20.20;99.90
31967;DHT22;18496;52.042;6.812;2022-07-11T03:02:48;20.20;99.90
31967;DHT22;18496;52.042;6.812;2022-07-11T03:04:51;20.20;99.90
31967;DHT22;18496;52.042;6.812;2022-07-11T03:06:55;20.20;99.90
31967;DHT22;18496;52.042;6.812;2022-07-11T03:09:00;20.10;99.90
31967;DHT22;18496;52.042;6.812;2022-07-11T03:11:04;20.10;99.90
31967;DHT22;18496;52.042;6.812;2022-07-11T03:13:09;20.10;99.90
31967;DHT22;18496;52.042;6.812;2022-07-11T03:15:12;20.10;99.90
31967;DHT22;18496;52.042;6.812;2022-07-11T03:17:17;20.10;99.90
31967;DHT22;18496;52.042;6.812;2022-07-11T03:19:21;20.10;99.90
31967;DHT22;18496;52.042;6.812;2022-07-11T03:21:25;20.10;99.90
31967;DHT22;18496;52.042;6.812;2022-07-11T03:23:28;20.10;99.90
31967;DHT22;18496;52.042;6.812;2022-07-11T03:25:32;20.10;99.90
31967;DHT22;18496;52.042;6.812;2022-07-11T03:27:36;20.10;99.90
31967;DHT22;18496;52.042;6.812;2022-07-11T03:29:40;20.10;99.90
31967;DHT22;18496;52.042;6.812;2022-07-11T03:31:44;20.10;99.90
31967;DHT22;18496;52.042;6.812;2022-07-11T03:33:47;20.10;99.90
31967;DHT22;18496;52.042;6.812;2022-07-11T03:35:51;20.00;99.90
31967;DHT22;18496;52.042;6.812;2022-07-11T03:37:55;20.00;99.90
31967;DHT22;18496;52.042;6.812;2022-07-11T03:39:58;20.10;99.90
31967;DHT22;18496;52.042;6.812;2022-07-11T03:42:02;20.10;99.90
31967;DHT22;18496;52.042;6.812;2022-07-11T03:44:06;20.00;99.90
31967;DHT22;18496;52.042;6.812;2022-07-11T03:46:10;20.00;99.90
31967;DHT22;18496;52.042;6.812;2022-07-11T03:48:13;20.00;99.90
31967;DHT22;18496;52.042;6.812;2022-07-11T03:50:17;19.90;99.90
31967;DHT22;18496;52.042;6.812;2022-07-11T03:52:21;19.90;99.90
31967;DHT22;18496;52.042;6.812;2022-07-11T03:54:24;19.90;99.90
31967;DHT22;18496;52.042;6.812;2022-07-11T03:56:28;19.90;99.90
31967;DHT22;18496;52.042;6.812;2022-07-11T03:58:32;19.90;99.90
31967;DHT22;18496;52.042;6.812;2022-07-11T04:00:35;20.00;99.90
31967;DHT22;18496;52.042;6.812;2022-07-11T04:02:39;20.00;99.90
31967;DHT22;18496;52.042;6.812;2022-07-11T04:04:43;20.00;99.90
31967;DHT22;18496;52.042;6.812;2022-07-11T04:06:47;20.00;99.90
31967;DHT22;18496;52.042;6.812;2022-07-11T04:08:50;20.00;99.90
31967;DHT22;18496;52.042;6.812;2022-07-11T04:10:54;20.00;99.90
31967;DHT22;18496;52.042;6.812;2022-07-11T04:12:57;20.00;99.90
31967;DHT22;18496;52.042;6.812;2022-07-11T04:15:01;19.80;99.90
31967;DHT22;18496;52.042;6.812;2022-07-11T04:17:05;19.80;99.90
31967;DHT22;18496;52.042;6.812;2022-07-11T04:19:09;19.80;99.90
31967;DHT22;18496;52.042;6.812;2022-07-11T04:21:12;19.70;99.90
31967;DHT22;18496;52.042;6.812;2022-07-11T04:23:17;19.70;99.90
31967;DHT22;18496;52.042;6.812;2022-07-11T04:25:23;19.60;99.90
31967;DHT22;18496;52.042;6.812;2022-07-11T04:27:27;19.60;99.90
31967;DHT22;18496;52.042;6.812;2022-07-11T04:29:31;19.60;99.90
31967;DHT22;18496;52.042;6.812;2022-07-11T04:31:35;19.60;99.90
31967;DHT22;18496;52.042;6.812;2022-07-11T04:33:38;19.60;99.90
31967;DHT22;18496;52.042;6.812;2022-07-11T04:35:42;19.60;99.90
31967;DHT22;18496;52.042;6.812;2022-07-11T04:37:46;19.60;99.90
31967;DHT22;18496;52.042;6.812;2022-07-11T04:39:49;19.60;99.90
31967;DHT22;18496;52.042;6.812;2022-07-11T04:41:53;19.60;99.90
31967;DHT22;18496;52.042;6.812;2022-07-11T04:43:56;19.60;99.90
31967;DHT22;18496;52.042;6.812;2022-07-11T04:46:01;19.60;99.90
31967;DHT22;18496;52.042;6.812;2022-07-11T04:48:05;19.60;99.90
31967;DHT22;18496;52.042;6.812;2022-07-11T04:50:10;19.60;99.90
31967;DHT22;18496;52.042;6.812;2022-07-11T04:52:14;19.50;99.90
31967;DHT22;18496;52.042;6.812;2022-07-11T04:54:17;19.50;99.90
31967;DHT22;18496;52.042;6.812;2022-07-11T04:56:21;19.50;99.90
31967;DHT22;18496;52.042;6.812;2022-07-11T04:58:25;19.50;99.90
31967;DHT22;18496;52.042;6.812;2022-07-11T05:00:29;19.50;99.90
31967;DHT22;18496;52.042;6.812;2022-07-11T05:02:32;19.50;99.90
31967;DHT22;18496;52.042;6.812;2022-07-11T05:04:36;19.40;99.90
31967;DHT22;18496;52.042;6.812;2022-07-11T05:06:40;19.40;99.90
31967;DHT22;18496;52.042;6.812;2022-07-11T05:08:44;19.30;99.90
31967;DHT22;18496;52.042;6.812;2022-07-11T05:10:48;19.30;99.90
31967;DHT22;18496;52.042;6.812;2022-07-11T05:12:51;19.30;99.90
31967;DHT22;18496;52.042;6.812;2022-07-11T05:14:55;19.40;99.90
31967;DHT22;18496;52.042;6.812;2022-07-11T05:16:58;19.40;99.90
31967;DHT22;18496;52.042;6.812;2022-07-11T05:19:02;19.50;99.90
31967;DHT22;18496;52.042;6.812;2022-07-11T05:21:06;19.50;99.90
31967;DHT22;18496;52.042;6.812;2022-07-11T05:23:09;19.50;99.90
31967;DHT22;18496;52.042;6.812;2022-07-11T05:25:13;19.50;99.90
31967;DHT22;18496;52.042;6.812;2022-07-11T05:27:17;19.50;99.90
31967;DHT22;18496;52.042;6.812;2022-07-11T05:29:20;19.40;99.90
31967;DHT22;18496;52.042;6.812;2022-07-11T05:31:24;19.50;99.90
31967;DHT22;18496;52.042;6.812;2022-07-11T05:33:31;19.50;99.90
31967;DHT22;18496;52.042;6.812;2022-07-11T05:35:34;19.50;99.90
31967;DHT22;18496;52.042;6.812;2022-07-11T05:37:38;19.60;99.90
31967;DHT22;18496;52.042;6.812;2022-07-11T05:39:42;19.60;99.90
31967;DHT22;18496;52.042;6.812;2022-07-11T05:41:45;19.60;99.90
31967;DHT22;18496;52.042;6.812;2022-07-11T05:43:49;19.60;99.90
31967;DHT22;18496;52.042;6.812;2022-07-11T05:45:53;19.60;99.90
31967;DHT22;18496;52.042;6.812;2022-07-11T05:47:56;19.60;99.90
31967;DHT22;18496;52.042;6.812;2022-07-11T05:50:00;19.60;99.90
31967;DHT22;18496;52.042;6.812;2022-07-11T05:52:04;19.60;99.90
31967;DHT22;18496;52.042;6.812;2022-07-11T05:54:08;19.60;99.90
31967;DHT22;18496;52.042;6.812;2022-07-11T05:56:12;19.60;99.90
31967;DHT22;18496;52.042;6.812;2022-07-11T05:58:15;19.50;99.90
31967;DHT22;18496;52.042;6.812;2022-07-11T06:00:19;19.50;99.90
31967;DHT22;18496;52.042;6.812;2022-07-11T06:02:24;19.50;99.90
31967;DHT22;18496;52.042;6.812;2022-07-11T06:04:28;19.50;99.90
31967;DHT22;18496;52.042;6.812;2022-07-11T06:06:32;19.50;99.90
31967;DHT22;18496;52.042;6.812;2022-07-11T06:08:36;19.50;99.90
31967;DHT22;18496;52.042;6.812;2022-07-11T06:10:46;19.50;99.90
31967;DHT22;18496;52.042;6.812;2022-07-11T06:12:49;19.50;99.90
31967;DHT22;18496;52.042;6.812;2022-07-11T06:14:53;19.50;99.90
31967;DHT22;18496;52.042;6.812;2022-07-11T06:17:00;19.50;99.90
31967;DHT22;18496;52.042;6.812;2022-07-11T06:19:03;19.50;99.90
31967;DHT22;18496;52.042;6.812;2022-07-11T06:21:07;19.50;99.90
31967;DHT22;18496;52.042;6.812;2022-07-11T06:23:11;19.60;99.90
31967;DHT22;18496;52.042;6.812;2022-07-11T06:25:17;19.50;99.90
31967;DHT22;18496;52.042;6.812;2022-07-11T06:27:21;19.50;99.90
31967;DHT22;18496;52.042;6.812;2022-07-11T06:29:28;19.50;99.90
31967;DHT22;18496;52.042;6.812;2022-07-11T06:31:32;19.50;99.90
31967;DHT22;18496;52.042;6.812;2022-07-11T06:33:36;19.50;99.90
31967;DHT22;18496;52.042;6.812;2022-07-11T06:35:40;19.60;99.90
31967;DHT22;18496;52.042;6.812;2022-07-11T06:37:43;19.50;99.90
31967;DHT22;18496;52.042;6.812;2022-07-11T06:39:47;19.60;99.90
31967;DHT22;18496;52.042;6.812;2022-07-11T06:41:50;19.60;99.90
31967;DHT22;18496;52.042;6.812;2022-07-11T06:43:54;19.60;99.90
31967;DHT22;18496;52.042;6.812;2022-07-11T06:45:58;19.60;99.90
31967;DHT22;18496;52.042;6.812;2022-07-11T06:48:03;19.60;99.90
31967;DHT22;18496;52.042;6.812;2022-07-11T06:50:08;19.60;99.90
31967;DHT22;18496;52.042;6.812;2022-07-11T06:52:15;19.60;99.90
31967;DHT22;18496;52.042;6.812;2022-07-11T06:54:18;19.60;99.90
31967;DHT22;18496;52.042;6.812;2022-07-11T06:56:22;19.50;99.90
31967;DHT22;18496;52.042;6.812;2022-07-11T06:58:26;19.50;99.90
31967;DHT22;18496;52.042;6.812;2022-07-11T07:00:35;19.40;99.90
31967;DHT22;18496;52.042;6.812;2022-07-11T07:02:39;19.40;99.90
31967;DHT22;18496;52.042;6.812;2022-07-11T07:04:42;19.40;99.90
31967;DHT22;18496;52.042;6.812;2022-07-11T07:06:46;19.50;99.90
31967;DHT22;18496;52.042;6.812;2022-07-11T07:08:50;19.50;99.90
31967;DHT22;18496;52.042;6.812;2022-07-11T07:10:54;19.50;99.90
31967;DHT22;18496;52.042;6.812;2022-07-11T07:12:58;19.50;99.90
31967;DHT22;18496;52.042;6.812;2022-07-11T07:15:01;19.50;99.90
31967;DHT22;18496;52.042;6.812;2022-07-11T07:17:05;19.60;99.90
31967;DHT22;18496;52.042;6.812;2022-07-11T07:19:09;19.60;99.90
31967;DHT22;18496;52.042;6.812;2022-07-11T07:21:13;19.60;99.90
31967;DHT22;18496;52.042;6.812;2022-07-11T07:23:17;19.60;99.90
31967;DHT22;18496;52.042;6.812;2022-07-11T07:25:20;19.60;99.90
31967;DHT22;18496;52.042;6.812;2022-07-11T07:27:24;19.60;99.90
31967;DHT22;18496;52.042;6.812;2022-07-11T07:29:27;19.60;99.90
31967;DHT22;18496;52.042;6.812;2022-07-11T07:31:31;19.60;99.90
31967;DHT22;18496;52.042;6.812;2022-07-11T07:33:35;19.60;99.90
31967;DHT22;18496;52.042;6.812;2022-07-11T07:35:38;19.60;99.90
31967;DHT22;18496;52.042;6.812;2022-07-11T07:37:42;19.60;99.90
31967;DHT22;18496;52.042;6.812;2022-07-11T07:39:46;19.60;99.90
31967;DHT22;18496;52.042;6.812;2022-07-11T07:41:49;19.70;99.90
31967;DHT22;18496;52.042;6.812;2022-07-11T07:43:53;19.80;99.90
31967;DHT22;18496;52.042;6.812;2022-07-11T07:45:57;19.90;99.90
31967;DHT22;18496;52.042;6.812;2022-07-11T07:48:01;19.90;99.90
31967;DHT22;18496;52.042;6.812;2022-07-11T07:50:05;20.00;99.90
31967;DHT22;18496;52.042;6.812;2022-07-11T07:52:09;20.00;99.90
31967;DHT22;18496;52.042;6.812;2022-07-11T07:54:12;20.00;99.90
31967;DHT22;18496;52.042;6.812;2022-07-11T07:56:17;20.10;99.90
31967;DHT22;18496;52.042;6.812;2022-07-11T07:58:20;20.10;99.90
31967;DHT22;18496;52.042;6.812;2022-07-11T08:00:24;20.20;99.90
31967;DHT22;18496;52.042;6.812;2022-07-11T08:02:46;20.20;99.90
31967;DHT22;18496;52.042;6.812;2022-07-11T08:04:52;20.30;99.90
31967;DHT22;18496;52.042;6.812;2022-07-11T08:06:58;20.30;99.90
31967;DHT22;18496;52.042;6.812;2022-07-11T08:09:04;20.40;99.90
31967;DHT22;18496;52.042;6.812;2022-07-11T08:11:08;20.50;99.90
31967;DHT22;18496;52.042;6.812;2022-07-11T08:13:14;20.50;99.90
31967;DHT22;18496;52.042;6.812;2022-07-11T08:15:21;20.50;99.90
31967;DHT22;18496;52.042;6.812;2022-07-11T08:17:24;20.50;99.90
31967;DHT22;18496;52.042;6.812;2022-07-11T08:19:28;20.60;99.90
31967;DHT22;18496;52.042;6.812;2022-07-11T08:21:34;20.50;99.90
31967;DHT22;18496;52.042;6.812;2022-07-11T08:23:38;20.50;99.90
31967;DHT22;18496;52.042;6.812;2022-07-11T08:25:41;20.50;99.90
31967;DHT22;18496;52.042;6.812;2022-07-11T08:27:45;20.50;99.90
31967;DHT22;18496;52.042;6.812;2022-07-11T08:29:48;20.40;99.90
31967;DHT22;18496;52.042;6.812;2022-07-11T08:31:52;20.40;99.90
31967;DHT22;18496;52.042;6.812;2022-07-11T08:33:56;20.40;99.90
31967;DHT22;18496;52.042;6.812;2022-07-11T08:36:02;20.40;99.90
31967;DHT22;18496;52.042;6.812;2022-07-11T08:38:05;20.30;99.90
31967;DHT22;18496;52.042;6.812;2022-07-11T08:40:10;20.30;99.90
31967;DHT22;18496;52.042;6.812;2022-07-11T08:42:18;20.40;99.90
31967;DHT22;18496;52.042;6.812;2022-07-11T08:44:24;20.40;99.90
31967;DHT22;18496;52.042;6.812;2022-07-11T08:46:29;20.40;99.90
31967;DHT22;18496;52.042;6.812;2022-07-11T08:48:32;20.40;99.90
31967;DHT22;18496;52.042;6.812;2022-07-11T08:50:37;20.30;99.90
31967;DHT22;18496;52.042;6.812;2022-07-11T08:52:41;20.40;99.90
31967;DHT22;18496;52.042;6.812;2022-07-11T08:54:45;20.40;99.90
31967;DHT22;18496;52.042;6.812;2022-07-11T08:56:50;20.40;99.90
31967;DHT22;18496;52.042;6.812;2022-07-11T08:58:53;20.40;99.90
31967;DHT22;18496;52.042;6.812;2022-07-11T09:00:58;20.40;99.90
31967;DHT22;18496;52.042;6.812;2022-07-11T09:03:03;20.50;99.90
31967;DHT22;18496;52.042;6.812;2022-07-11T09:05:07;20.60;99.90
31967;DHT22;18496;52.042;6.812;2022-07-11T09:07:11;20.60;99.90
31967;DHT22;18496;52.042;6.812;2022-07-11T09:09:14;20.70;99.90
31967;DHT22;18496;52.042;6.812;2022-07-11T09:11:18;20.90;99.90
31967;DHT22;18496;52.042;6.812;2022-07-11T09:13:28;20.90;99.90
31967;DHT22;18496;52.042;6.812;2022-07-11T09:15:42;21.00;99.90
31967;DHT22;18496;52.042;6.812;2022-07-11T09:17:46;21.20;99.90
31967;DHT22;18496;52.042;6.812;2022-07-11T09:19:51;21.30;99.90
31967;DHT22;18496;52.042;6.812;2022-07-11T09:22:03;21.40;99.90
31967;DHT22;18496;52.042;6.812;2022-07-11T09:24:26;21.50;99.90
31967;DHT22;18496;52.042;6.812;2022-07-11T09:27:11;21.50;99.90
31967;DHT22;18496;52.042;6.812;2022-07-11T09:29:22;21.60;99.90
31967;DHT22;18496;52.042;6.812;2022-07-11T09:31:28;21.60;99.90
31967;DHT22;18496;52.042;6.812;2022-07-11T09:33:33;21.60;99.90
31967;DHT22;18496;52.042;6.812;2022-07-11T09:35:39;21.50;99.90
31967;DHT22;18496;52.042;6.812;2022-07-11T09:37:44;21.50;99.90
31967;DHT22;18496;52.042;6.812;2022-07-11T09:39:48;21.40;99.90
31967;DHT22;18496;52.042;6.812;2022-07-11T09:41:55;21.40;99.90
31967;DHT22;18496;52.042;6.812;2022-07-11T09:46:12;21.30;99.90
31967;DHT22;18496;52.042;6.812;2022-07-11T09:48:16;21.30;99.90
31967;DHT22;18496;52.042;6.812;2022-07-11T09:50:27;21.20;99.90
31967;DHT22;18496;52.042;6.812;2022-07-11T09:52:32;21.20;99.90
31967;DHT22;18496;52.042;6.812;2022-07-11T09:54:58;21.20;99.90
31967;DHT22;18496;52.042;6.812;2022-07-11T09:57:10;21.20;99.90
31967;DHT22;18496;52.042;6.812;2022-07-11T09:59:14;21.10;99.90
31967;DHT22;18496;52.042;6.812;2022-07-11T10:01:18;21.10;99.90
31967;DHT22;18496;52.042;6.812;2022-07-11T10:03:22;21.10;99.90
31967;DHT22;18496;52.042;6.812;2022-07-11T10:05:27;21.10;99.90
31967;DHT22;18496;52.042;6.812;2022-07-11T10:07:31;21.10;99.90
31967;DHT22;18496;52.042;6.812;2022-07-11T10:09:35;21.00;99.90
31967;DHT22;18496;52.042;6.812;2022-07-11T10:11:39;21.00;99.90
31967;DHT22;18496;52.042;6.812;2022-07-11T10:13:43;21.00;99.90
31967;DHT22;18496;52.042;6.812;2022-07-11T10:15:47;21.00;99.90
31967;DHT22;18496;52.042;6.812;2022-07-11T10:20:27;21.10;99.90
31967;DHT22;18496;52.042;6.812;2022-07-11T10:22:42;21.10;99.90
31967;DHT22;18496;52.042;6.812;2022-07-11T10:27:11;21.00;99.90
31967;DHT22;18496;52.042;6.812;2022-07-11T10:29:35;21.00;99.90
31967;DHT22;18496;52.042;6.812;2022-07-11T10:31:40;21.10;99.90
31967;DHT22;18496;52.042;6.812;2022-07-11T10:36:06;21.20;99.90
31967;DHT22;18496;52.042;6.812;2022-07-11T10:38:10;21.30;99.90
31967;DHT22;18496;52.042;6.812;2022-07-11T10:40:14;21.30;99.90
31967;DHT22;18496;52.042;6.812;2022-07-11T10:42:21;21.30;99.90
31967;DHT22;18496;52.042;6.812;2022-07-11T10:44:27;21.40;99.90
31967;DHT22;18496;52.042;6.812;2022-07-11T10:46:31;21.40;99.90
31967;DHT22;18496;52.042;6.812;2022-07-11T10:53:21;21.60;99.90
31967;DHT22;18496;52.042;6.812;2022-07-11T10:55:35;21.70;99.90
31967;DHT22;18496;52.042;6.812;2022-07-11T10:57:55;21.80;99.90
31967;DHT22;18496;52.042;6.812;2022-07-11T11:00:06;21.80;99.90
31967;DHT22;18496;52.042;6.812;2022-07-11T11:02:12;21.80;99.90
31967;DHT22;18496;52.042;6.812;2022-07-11T11:05:20;21.80;99.90
31967;DHT22;18496;52.042;6.812;2022-07-11T11:07:02;21.80;99.90
31967;DHT22;18496;52.042;6.812;2022-07-11T11:09:59;21.70;99.90
31967;DHT22;18496;52.042;6.812;2022-07-11T11:11:55;21.80;99.90
31967;DHT22;18496;52.042;6.812;2022-07-11T11:14:18;21.80;99.90
31967;DHT22;18496;52.042;6.812;2022-07-11T11:16:23;21.90;99.90
31967;DHT22;18496;52.042;6.812;2022-07-11T11:18:32;21.90;99.90
31967;DHT22;18496;52.042;6.812;2022-07-11T11:20:39;21.90;99.90
31967;DHT22;18496;52.042;6.812;2022-07-11T11:23:09;21.90;99.90
31967;DHT22;18496;52.042;6.812;2022-07-11T11:25:13;21.90;99.90
31967;DHT22;18496;52.042;6.812;2022-07-11T11:27:21;21.90;99.90
31967;DHT22;18496;52.042;6.812;2022-07-11T11:29:27;22.00;99.90
31967;DHT22;18496;52.042;6.812;2022-07-11T11:31:33;22.00;99.90
31967;DHT22;18496;52.042;6.812;2022-07-11T11:33:37;22.00;99.90
31967;DHT22;18496;52.042;6.812;2022-07-11T11:35:40;22.00;99.90
31967;DHT22;18496;52.042;6.812;2022-07-11T11:37:44;22.10;99.90
31967;DHT22;18496;52.042;6.812;2022-07-11T11:39:48;22.10;99.90
31967;DHT22;18496;52.042;6.812;2022-07-11T11:42:14;22.20;99.80
31967;DHT22;18496;52.042;6.812;2022-07-11T11:44:18;22.20;99.90
31967;DHT22;18496;52.042;6.812;2022-07-11T11:46:30;22.20;99.90
31967;DHT22;18496;52.042;6.812;2022-07-11T11:48:37;22.30;99.90
31967;DHT22;18496;52.042;6.812;2022-07-11T11:50:40;22.30;99.90
31967;DHT22;18496;52.042;6.812;2022-07-11T11:52:44;22.30;99.40
31967;DHT22;18496;52.042;6.812;2022-07-11T11:54:56;22.40;99.40
31967;DHT22;18496;52.042;6.812;2022-07-11T11:57:09;22.40;99.40
31967;DHT22;18496;52.042;6.812;2022-07-11T11:59:15;22.50;99.60
31967;DHT22;18496;52.042;6.812;2022-07-11T12:01:21;22.50;99.50
31967;DHT22;18496;52.042;6.812;2022-07-11T12:03:49;22.60;99.30
31967;DHT22;18496;52.042;6.812;2022-07-11T12:05:57;22.60;99.20
31967;DHT22;18496;52.042;6.812;2022-07-11T12:08:01;22.60;99.10
31967;DHT22;18496;52.042;6.812;2022-07-11T12:10:05;22.60;99.20
31967;DHT22;18496;52.042;6.812;2022-07-11T12:12:09;22.70;99.00
31967;DHT22;18496;52.042;6.812;2022-07-11T12:14:32;22.70;98.60
31967;DHT22;18496;52.042;6.812;2022-07-11T12:16:44;22.70;98.70
31967;DHT22;18496;52.042;6.812;2022-07-11T12:18:52;22.60;98.40
31967;DHT22;18496;52.042;6.812;2022-07-11T12:20:56;22.50;98.70
31967;DHT22;18496;52.042;6.812;2022-07-11T12:23:00;22.50;99.00
31967;DHT22;18496;52.042;6.812;2022-07-11T12:25:04;22.50;99.40
31967;DHT22;18496;52.042;6.812;2022-07-11T12:27:08;22.50;99.30
31967;DHT22;18496;52.042;6.812;2022-07-11T12:29:12;22.50;99.30
31967;DHT22;18496;52.042;6.812;2022-07-11T12:31:18;22.60;99.30
31967;DHT22;18496;52.042;6.812;2022-07-11T12:33:22;22.70;99.20
31967;DHT22;18496;52.042;6.812;2022-07-11T12:35:27;22.70;99.10
31967;DHT22;18496;52.042;6.812;2022-07-11T12:37:38;22.80;99.20
31967;DHT22;18496;52.042;6.812;2022-07-11T12:39:53;22.80;99.00
31967;DHT22;18496;52.042;6.812;2022-07-11T12:41:59;22.80;99.00
31967;DHT22;18496;52.042;6.812;2022-07-11T12:44:03;22.80;98.80
31967;DHT22;18496;52.042;6.812;2022-07-11T12:46:27;22.80;99.00
31967;DHT22;18496;52.042;6.812;2022-07-11T12:48:38;22.90;99.00
31967;DHT22;18496;52.042;6.812;2022-07-11T12:50:42;23.10;98.60
31967;DHT22;18496;52.042;6.812;2022-07-11T12:52:48;23.10;98.50
31967;DHT22;18496;52.042;6.812;2022-07-11T12:55:00;23.10;97.90
31967;DHT22;18496;52.042;6.812;2022-07-11T12:57:05;23.10;98.00
31967;DHT22;18496;52.042;6.812;2022-07-11T12:59:30;23.10;98.30
31967;DHT22;18496;52.042;6.812;2022-07-11T13:01:34;23.20;98.30
31967;DHT22;18496;52.042;6.812;2022-07-11T13:03:38;23.30;98.20
31967;DHT22;18496;52.042;6.812;2022-07-11T13:05:51;23.30;97.70
31967;DHT22;18496;52.042;6.812;2022-07-11T13:07:55;23.30;97.50
31967;DHT22;18496;52.042;6.812;2022-07-11T13:10:37;23.30;97.70
31967;DHT22;18496;52.042;6.812;2022-07-11T13:12:56;23.30;97.80
31967;DHT22;18496;52.042;6.812;2022-07-11T13:15:02;23.40;97.90
31967;DHT22;18496;52.042;6.812;2022-07-11T13:17:13;23.40;97.80
31967;DHT22;18496;52.042;6.812;2022-07-11T13:19:17;23.40;97.50
31967;DHT22;18496;52.042;6.812;2022-07-11T13:21:21;23.30;97.60
31967;DHT22;18496;52.042;6.812;2022-07-11T13:23:25;23.40;97.50
31967;DHT22;18496;52.042;6.812;2022-07-11T13:25:28;23.40;97.30
31967;DHT22;18496;52.042;6.812;2022-07-11T13:27:33;23.40;97.60